Time;durP1;ratioP1;P1;durP2;ratioP2;P2;SDS_P1;SDS_P2;PMS_P1;PMS_P2;Temp;Humidity;BMP_temperature;BMP_pressure;BME280_temperature;BME280_humidity;BME280_pressure;Samples;Min_cycle;Max_cycle;Signal;HPM_P1;HPM_P2
2021/05/12 00:00:25;;;;;;;7.55;1.75;;;;;;;;;;4895547;29;20127;-63
2021/05/12 00:02:51;;;;;;;4.20;1.70;;;;;;;;;;4895688;29;20033;-64
2021/05/12 00:05:18;;;;;;;5.72;1.70;;;;;;;;;;4878642;29;20100;-63
2021/05/12 00:07:44;;;;;;;3.45;1.70;;;;;;;;;;4895401;29;20021;-65
2021/05/12 00:10:11;;;;;;;4.60;1.90;;;;;;;;;;4895547;29;20476;-65
2021/05/12 00:12:38;;;;;;;3.88;1.60;;;;;;;;;;4895689;29;20033;-64
2021/05/12 00:15:06;;;;;;;4.90;1.80;;;;;;;;;;4898590;29;20107;-65
2021/05/12 00:17:34;;;;;;;7.85;1.90;;;;;;;;;;4899175;29;20492;-64
2021/05/12 00:20:01;;;;;;;3.33;1.52;;;;;;;;;;4898959;29;20398;-64
2021/05/12 00:22:43;;;;;;;3.92;1.77;;;;;;;;;;4899107;29;20080;-64
2021/05/12 00:25:09;;;;;;;;;;;;;;;;;;4899563;29;20028;-65
2021/05/12 00:27:35;;;;;;;3.15;1.63;;;;;;;;;;4898991;29;20340;-64
2021/05/12 00:30:02;;;;;;;6.20;1.85;;;;;;;;;;4898917;29;20072;-65
2021/05/12 00:32:28;;;;;;;4.65;1.73;;;;;;;;;;4898770;29;20056;-64
2021/05/12 00:34:54;;;;;;;3.53;1.55;;;;;;;;;;4898769;29;20056;-65
2021/05/12 00:37:20;;;;;;;4.80;1.63;;;;;;;;;;4898790;29;20131;-65
2021/05/12 00:39:46;;;;;;;6.03;1.90;;;;;;;;;;4898528;29;20080;-64
2021/05/12 00:42:12;;;;;;;5.60;1.73;;;;;;;;;;4898782;29;20093;-65
2021/05/12 00:44:38;;;;;;;5.13;1.98;;;;;;;;;;4898844;29;20067;-65
2021/05/12 00:47:05;;;;;;;5.22;2.08;;;;;;;;;;4898622;29;20132;-66
2021/05/12 00:49:32;;;;;;;6.25;1.60;;;;;;;;;;4898583;29;20039;-65
2021/05/12 00:51:58;;;;;;;4.85;1.73;;;;;;;;;;4898595;29;20040;-66
2021/05/12 00:54:25;;;;;;;3.03;1.48;;;;;;;;;;4898518;29;20473;-62
2021/05/12 00:56:51;;;;;;;4.72;1.63;;;;;;;;;;4898379;29;20044;-62
2021/05/12 00:59:18;;;;;;;4.47;1.65;;;;;;;;;;4898465;29;20024;-62
2021/05/12 01:01:44;;;;;;;2.63;1.73;;;;;;;;;;4898351;29;20076;-62
2021/05/12 01:04:10;;;;;;;5.03;1.60;;;;;;;;;;4898236;29;20052;-62
2021/05/12 01:06:38;;;;;;;4.38;1.73;;;;;;;;;;4898019;29;20033;-62
2021/05/12 01:09:04;;;;;;;6.57;1.83;;;;;;;;;;4898086;29;20031;-62
2021/05/12 01:11:31;;;;;;;5.00;1.58;;;;;;;;;;4899211;29;20059;-62
2021/05/12 01:13:57;;;;;;;3.88;1.67;;;;;;;;;;4900167;29;20104;-62
2021/05/12 01:16:23;;;;;;;7.97;1.70;;;;;;;;;;4898875;29;20020;-62
2021/05/12 01:18:50;;;;;;;6.28;1.55;;;;;;;;;;4898086;29;20037;-62
2021/05/12 01:21:16;;;;;;;5.88;1.70;;;;;;;;;;4897811;29;20048;-62
2021/05/12 01:23:44;;;;;;;3.60;1.58;;;;;;;;;;4897970;29;20507;-62
2021/05/12 01:26:13;;;;;;;5.15;1.60;;;;;;;;;;4896546;29;20119;-62
2021/05/12 01:28:41;;;;;;;3.20;1.75;;;;;;;;;;4897778;29;20025;-62
2021/05/12 01:31:10;;;;;;;3.22;1.40;;;;;;;;;;4897619;29;20089;-62
2021/05/12 01:33:37;;;;;;;3.67;1.67;;;;;;;;;;4898050;29;20043;-63
2021/05/12 01:36:04;;;;;;;4.57;1.50;;;;;;;;;;4898216;29;20033;-66
2021/05/12 01:38:30;;;;;;;6.85;1.75;;;;;;;;;;4897969;29;20032;-65
2021/05/12 01:40:56;;;;;;;3.83;1.48;;;;;;;;;;4897530;29;20020;-65
2021/05/12 01:43:22;;;;;;;3.22;1.67;;;;;;;;;;4897514;29;20084;-66
2021/05/12 01:45:49;;;;;;;4.88;1.60;;;;;;;;;;4897630;29;20031;-65
2021/05/12 01:48:15;;;;;;;4.53;1.40;;;;;;;;;;4897536;29;20042;-65
2021/05/12 01:50:42;;;;;;;2.92;1.52;;;;;;;;;;4897085;29;20036;-64
2021/05/12 01:53:08;;;;;;;7.35;1.60;;;;;;;;;;4897383;29;20065;-66
2021/05/12 01:55:34;;;;;;;4.05;1.50;;;;;;;;;;4897245;29;20028;-66
2021/05/12 01:58:01;;;;;;;5.63;1.60;;;;;;;;;;4880142;29;20390;-66
2021/05/12 02:00:32;;;;;;;4.95;1.70;;;;;;;;;;4897030;29;20499;-65
2021/05/12 02:02:58;;;;;;;4.30;1.58;;;;;;;;;;4880079;29;20078;-66
2021/05/12 02:05:25;;;;;;;5.82;1.55;;;;;;;;;;4896875;29;20044;-65
2021/05/12 02:07:56;;;;;;;3.72;1.42;;;;;;;;;;4897236;29;20033;-65
2021/05/12 02:10:22;;;;;;;6.55;1.50;;;;;;;;;;4896922;29;20033;-65
2021/05/12 02:12:49;;;;;;;3.80;1.67;;;;;;;;;;4880006;29;20517;-66
2021/05/12 02:15:15;;;;;;;3.72;1.30;;;;;;;;;;4896888;29;20154;-62
2021/05/12 02:17:41;;;;;;;5.30;1.45;;;;;;;;;;4896886;29;20325;-62
2021/05/12 02:20:09;;;;;;;5.10;1.58;;;;;;;;;;4896518;29;20568;-62
2021/05/12 02:22:35;;;;;;;3.03;1.30;;;;;;;;;;4896932;29;20100;-61
2021/05/12 02:25:01;;;;;;;5.53;1.70;;;;;;;;;;4896796;29;20024;-61
2021/05/12 02:27:27;;;;;;;6.07;1.70;;;;;;;;;;4896463;29;20099;-61
2021/05/12 02:29:56;;;;;;;4.57;1.55;;;;;;;;;;4896581;29;20025;-61
2021/05/12 02:32:22;;;;;;;4.88;1.65;;;;;;;;;;4896657;29;20413;-61
2021/05/12 02:34:48;;;;;;;5.35;1.48;;;;;;;;;;4879899;29;20051;-61
2021/05/12 02:37:14;;;;;;;4.25;1.50;;;;;;;;;;4879137;29;20390;-66
2021/05/12 02:39:40;;;;;;;3.28;1.52;;;;;;;;;;4896679;29;20021;-62
2021/05/12 02:42:06;;;;;;;3.13;1.55;;;;;;;;;;4896232;29;20028;-62
2021/05/12 02:44:32;;;;;;;4.05;1.52;;;;;;;;;;4896742;29;20057;-61
2021/05/12 02:46:58;;;;;;;2.92;1.58;;;;;;;;;;4896303;29;20036;-61
2021/05/12 02:49:24;;;;;;;3.30;1.50;;;;;;;;;;4896386;29;20051;-62
2021/05/12 02:51:50;;;;;;;4.70;1.50;;;;;;;;;;4896499;29;20557;-62
2021/05/12 02:54:18;;;;;;;3.40;1.55;;;;;;;;;;4896132;29;20474;-62
2021/05/12 02:56:44;;;;;;;4.30;1.48;;;;;;;;;;4895718;29;20039;-63
2021/05/12 02:59:10;;;;;;;4.20;1.58;;;;;;;;;;4891243;29;20031;-62
2021/05/12 03:01:36;;;;;;;3.30;1.77;;;;;;;;;;4890248;29;20508;-62
2021/05/12 03:04:03;;;;;;;2.92;1.27;;;;;;;;;;4891527;29;20084;-62
2021/05/12 03:06:29;;;;;;;4.70;1.50;;;;;;;;;;4896122;29;20033;-63
2021/05/12 03:08:55;;;;;;;4.82;1.45;;;;;;;;;;4896249;29;20485;-63
2021/05/12 03:11:22;;;;;;;5.70;1.63;;;;;;;;;;4895955;29;20421;-63
2021/05/12 03:13:48;;;;;;;3.22;1.30;;;;;;;;;;4896092;29;20048;-65
2021/05/12 03:16:14;;;;;;;5.70;1.40;;;;;;;;;;4896088;29;20037;-66
2021/05/12 03:18:40;;;;;;;2.90;1.35;;;;;;;;;;4896052;29;20549;-62
2021/05/12 03:21:06;;;;;;;4.40;1.40;;;;;;;;;;4895827;29;20055;-65
2021/05/12 03:23:32;;;;;;;3.65;1.40;;;;;;;;;;4896165;29;20120;-65
2021/05/12 03:25:59;;;;;;;5.72;1.52;;;;;;;;;;4895929;29;20072;-66
2021/05/12 03:28:25;;;;;;;3.03;1.50;;;;;;;;;;4896021;29;20136;-65
2021/05/12 03:30:51;;;;;;;4.72;1.40;;;;;;;;;;4895824;29;20824;-65
2021/05/12 03:33:17;;;;;;;3.28;1.40;;;;;;;;;;4896094;29;20033;-62
2021/05/12 03:35:43;;;;;;;5.95;1.50;;;;;;;;;;4895915;29;20040;-62
2021/05/12 03:38:11;;;;;;;3.85;1.30;;;;;;;;;;4895884;29;20067;-62
2021/05/12 03:40:37;;;;;;;4.43;1.60;;;;;;;;;;4895913;29;20028;-62
2021/05/12 03:43:03;;;;;;;5.45;1.45;;;;;;;;;;4895735;29;20467;-63
2021/05/12 03:45:29;;;;;;;4.32;1.60;;;;;;;;;;4895780;29;20024;-62
2021/05/12 03:47:55;;;;;;;2.90;1.52;;;;;;;;;;4895963;29;20021;-62
2021/05/12 03:50:23;;;;;;;4.18;1.40;;;;;;;;;;4899394;29;20433;-62
2021/05/12 03:52:49;;;;;;;5.03;1.90;;;;;;;;;;4899645;29;20036;-62
2021/05/12 03:55:16;;;;;;;3.60;1.50;;;;;;;;;;4899591;29;20047;-62
2021/05/12 03:57:43;;;;;;;3.15;1.60;;;;;;;;;;4899550;29;20042;-62
2021/05/12 04:00:10;;;;;;;5.63;1.63;;;;;;;;;;4899395;29;20033;-63
2021/05/12 04:02:36;;;;;;;3.20;1.35;;;;;;;;;;4899198;29;20461;-63
2021/05/12 04:05:03;;;;;;;4.55;1.58;;;;;;;;;;4899271;29;20029;-62
2021/05/12 04:07:29;;;;;;;4.70;1.58;;;;;;;;;;4899498;29;20036;-63
2021/05/12 04:09:55;;;;;;;2.95;1.35;;;;;;;;;;4899442;29;20035;-63
2021/05/12 04:12:21;;;;;;;6.10;1.90;;;;;;;;;;4899002;29;20079;-62
2021/05/12 04:14:48;;;;;;;3.78;1.65;;;;;;;;;;4899071;29;20029;-62
2021/05/12 04:17:14;;;;;;;4.55;1.50;;;;;;;;;;4899141;29;20040;-61
2021/05/12 04:19:40;;;;;;;4.18;1.63;;;;;;;;;;4898500;29;20488;-61
2021/05/12 04:22:06;;;;;;;5.50;1.90;;;;;;;;;;4899269;29;20557;-63
2021/05/12 04:24:32;;;;;;;3.08;1.63;;;;;;;;;;4899082;29;20052;-63
2021/05/12 04:26:58;;;;;;;4.70;1.60;;;;;;;;;;4898991;29;20140;-66
2021/05/12 04:29:24;;;;;;;5.00;1.70;;;;;;;;;;4899018;29;20052;-63
2021/05/12 04:31:51;;;;;;;3.80;1.70;;;;;;;;;;4898772;29;20481;-63
2021/05/12 04:34:17;;;;;;;5.72;1.75;;;;;;;;;;4898956;29;20213;-61
2021/05/12 04:36:43;;;;;;;5.28;1.77;;;;;;;;;;4898541;29;20064;-63
2021/05/12 04:39:09;;;;;;;4.38;1.52;;;;;;;;;;4898419;29;20478;-61
2021/05/12 04:41:35;;;;;;;6.20;1.58;;;;;;;;;;4898329;29;20025;-62
2021/05/12 04:44:02;;;;;;;7.07;1.60;;;;;;;;;;4881463;29;20064;-62
2021/05/12 04:46:28;;;;;;;7.30;1.80;;;;;;;;;;4898752;29;20032;-62
2021/05/12 04:48:54;;;;;;;4.47;1.90;;;;;;;;;;4898382;29;20057;-63
2021/05/12 04:51:21;;;;;;;7.55;1.83;;;;;;;;;;4898761;29;20025;-62
2021/05/12 04:53:47;;;;;;;3.67;1.88;;;;;;;;;;4898420;29;20103;-63
2021/05/12 04:56:13;;;;;;;5.70;1.80;;;;;;;;;;4897978;29;20028;-63
2021/05/12 04:58:39;;;;;;;13.98;1.92;;;;;;;;;;4898308;29;20033;-63
2021/05/12 05:01:05;;;;;;;5.88;1.80;;;;;;;;;;4898034;29;20036;-62
2021/05/12 05:03:32;;;;;;;10.15;1.90;;;;;;;;;;4898402;29;20036;-62
2021/05/12 05:05:59;;;;;;;5.65;1.80;;;;;;;;;;4898381;29;20033;-62
2021/05/12 05:08:25;;;;;;;5.05;1.70;;;;;;;;;;4898231;29;20032;-64
2021/05/12 05:10:51;;;;;;;6.40;1.75;;;;;;;;;;4898003;29;20033;-67
2021/05/12 05:13:17;;;;;;;5.15;1.50;;;;;;;;;;4898030;29;20430;-65
2021/05/12 05:15:45;;;;;;;3.05;1.52;;;;;;;;;;4897982;29;20028;-66
2021/05/12 05:18:11;;;;;;;10.77;2.10;;;;;;;;;;4897907;29;20036;-71
2021/05/12 05:20:38;;;;;;;5.15;1.70;;;;;;;;;;4897408;29;20064;-64
2021/05/12 05:23:07;;;;;;;28.85;3.33;;;;;;;;;;4897941;29;20037;-67
2021/05/12 05:25:33;;;;;;;16.50;2.38;;;;;;;;;;4897691;29;20112;-65
2021/05/12 05:27:59;;;;;;;5.05;1.58;;;;;;;;;;4897570;29;20036;-61
2021/05/12 05:30:25;;;;;;;13.02;2.10;;;;;;;;;;4897530;29;20036;-62
2021/05/12 05:32:51;;;;;;;15.00;2.00;;;;;;;;;;4897380;29;20036;-65
2021/05/12 05:35:18;;;;;;;4.72;1.73;;;;;;;;;;4897512;29;20103;-61
2021/05/12 05:37:44;;;;;;;5.22;1.90;;;;;;;;;;4879561;29;20107;-68
2021/05/12 05:40:11;;;;;;;3.85;1.50;;;;;;;;;;4895855;29;20060;-62
2021/05/12 05:42:37;;;;;;;6.00;1.60;;;;;;;;;;4897387;29;20025;-70
2021/05/12 05:45:03;;;;;;;3.42;1.70;;;;;;;;;;4897476;29;20024;-63
2021/05/12 05:47:29;;;;;;;5.70;1.48;;;;;;;;;;4897373;29;20024;-68
2021/05/12 05:49:55;;;;;;;4.82;1.50;;;;;;;;;;4897034;29;20037;-62
2021/05/12 05:52:21;;;;;;;5.20;1.45;;;;;;;;;;4897100;29;20064;-67
2021/05/12 05:54:47;;;;;;;5.40;1.70;;;;;;;;;;4897165;29;20037;-63
2021/05/12 05:57:16;;;;;;;4.10;1.52;;;;;;;;;;4897073;29;20051;-64
2021/05/12 05:59:43;;;;;;;3.60;1.23;;;;;;;;;;4897259;29;20036;-63
2021/05/12 06:02:09;;;;;;;4.63;1.58;;;;;;;;;;4896942;29;20041;-68
2021/05/12 06:04:35;;;;;;;7.32;1.48;;;;;;;;;;4896967;29;20032;-69
2021/05/12 06:07:02;;;;;;;5.63;1.30;;;;;;;;;;4896398;29;20044;-71
2021/05/12 06:09:28;;;;;;;6.15;1.40;;;;;;;;;;4896902;29;20028;-65
2021/05/12 06:11:54;;;;;;;4.78;1.63;;;;;;;;;;4895863;29;20025;-61
2021/05/12 06:14:22;;;;;;;4.78;1.25;;;;;;;;;;4896587;29;20028;-62
2021/05/12 06:16:48;;;;;;;3.50;1.50;;;;;;;;;;4896664;29;20044;-66
2021/05/12 06:19:14;;;;;;;3.83;1.40;;;;;;;;;;4896467;29;20084;-63
2021/05/12 06:21:40;;;;;;;3.83;1.40;;;;;;;;;;4878948;29;20492;-62
2021/05/12 06:24:07;;;;;;;5.43;1.67;;;;;;;;;;4896706;29;20028;-63
2021/05/12 06:26:36;;;;;;;6.95;1.50;;;;;;;;;;4896230;29;20033;-73
2021/05/12 06:29:02;;;;;;;3.92;1.58;;;;;;;;;;4896385;29;20056;-73
2021/05/12 06:31:28;;;;;;;6.07;1.60;;;;;;;;;;4896263;29;20031;-65
2021/05/12 06:33:55;;;;;;;4.82;1.50;;;;;;;;;;4893452;29;20092;-68
2021/05/12 06:36:21;;;;;;;5.82;1.63;;;;;;;;;;4894431;29;20028;-67
2021/05/12 06:38:48;;;;;;;5.50;1.75;;;;;;;;;;4894754;29;20028;-65
2021/05/12 06:41:14;;;;;;;7.50;2.00;;;;;;;;;;4894451;29;20024;-61
2021/05/12 06:43:40;;;;;;;13.38;1.88;;;;;;;;;;4886712;29;20103;-66
2021/05/12 06:46:06;;;;;;;7.00;1.85;;;;;;;;;;4886014;29;20049;-63
2021/05/12 06:48:32;;;;;;;21.67;2.83;;;;;;;;;;4892011;29;20043;-68
2021/05/12 06:50:58;;;;;;;15.10;2.65;;;;;;;;;;4876702;29;20125;-63
2021/05/12 06:53:26;;;;;;;16.10;2.72;;;;;;;;;;4876857;29;20045;-65
2021/05/12 06:55:52;;;;;;;18.25;2.95;;;;;;;;;;4877046;29;20033;-68
2021/05/12 06:58:18;;;;;;;5.20;1.80;;;;;;;;;;4877301;29;20073;-67
2021/05/12 07:00:44;;;;;;;8.40;2.17;;;;;;;;;;4877000;29;20060;-62
2021/05/12 07:03:10;;;;;;;7.78;1.90;;;;;;;;;;4877175;29;20033;-61
2021/05/12 07:05:36;;;;;;;3.95;1.73;;;;;;;;;;4876996;29;20252;-66
2021/05/12 07:08:02;;;;;;;7.97;2.70;;;;;;;;;;4876941;29;20056;-63
2021/05/12 07:10:28;;;;;;;12.32;2.85;;;;;;;;;;4876569;29;20457;-63
2021/05/12 07:12:55;;;;;;;3.97;2.05;;;;;;;;;;4884689;29;20552;-65
2021/05/12 07:15:21;;;;;;;14.10;2.67;;;;;;;;;;4892459;29;20032;-62
2021/05/12 07:17:49;;;;;;;10.52;2.65;;;;;;;;;;4893899;29;20032;-62
2021/05/12 07:20:16;;;;;;;11.65;2.67;;;;;;;;;;4893962;29;20573;-62
2021/05/12 07:22:42;;;;;;;12.25;3.28;;;;;;;;;;4893611;29;20047;-62
2021/05/12 07:25:08;;;;;;;11.13;2.90;;;;;;;;;;4893678;29;20490;-64
2021/05/12 07:27:35;;;;;;;7.90;3.05;;;;;;;;;;4891895;29;20032;-62
2021/05/12 07:30:01;;;;;;;12.18;3.30;;;;;;;;;;4895140;29;20028;-64
2021/05/12 07:32:27;;;;;;;11.77;3.20;;;;;;;;;;4894960;29;20037;-62
2021/05/12 07:34:53;;;;;;;12.57;3.45;;;;;;;;;;4895460;29;20639;-63
2021/05/12 07:37:20;;;;;;;4.70;2.10;;;;;;;;;;4895288;29;20044;-70
2021/05/12 07:39:46;;;;;;;8.27;2.40;;;;;;;;;;4895731;29;20052;-65
2021/05/12 07:42:13;;;;;;;8.65;2.67;;;;;;;;;;4895365;29;20039;-62
2021/05/12 07:44:39;;;;;;;4.80;2.00;;;;;;;;;;4895386;29;20548;-63
2021/05/12 07:47:05;;;;;;;5.40;2.58;;;;;;;;;;4894864;29;20032;-63
2021/05/12 07:49:31;;;;;;;5.97;2.10;;;;;;;;;;4896810;29;20029;-62
2021/05/12 07:51:57;;;;;;;6.15;1.95;;;;;;;;;;4896298;29;20040;-64
2021/05/12 07:54:23;;;;;;;4.18;1.90;;;;;;;;;;4895922;29;20525;-67
2021/05/12 07:56:49;;;;;;;5.40;2.40;;;;;;;;;;4894233;29;20371;-62
2021/05/12 07:59:18;;;;;;;5.30;2.00;;;;;;;;;;4893522;29;20035;-62
2021/05/12 08:01:46;;;;;;;6.38;2.35;;;;;;;;;;4894126;29;20028;-66
2021/05/12 08:04:12;;;;;;;9.48;2.45;;;;;;;;;;4894827;29;20544;-62
2021/05/12 08:06:38;;;;;;;5.53;2.00;;;;;;;;;;4877953;29;20032;-63
2021/05/12 08:09:09;;;;;;;11.10;2.40;;;;;;;;;;4895387;29;20032;-64
2021/05/12 08:11:35;;;;;;;4.10;2.00;;;;;;;;;;4895172;29;20463;-62
2021/05/12 08:14:02;;;;;;;5.07;2.22;;;;;;;;;;4894920;29;20100;-67
2021/05/12 08:16:28;;;;;;;4.47;2.03;;;;;;;;;;4895472;29;20052;-62
2021/05/12 08:18:54;;;;;;;4.10;2.33;;;;;;;;;;4895866;29;20032;-67
2021/05/12 08:21:20;;;;;;;5.72;1.90;;;;;;;;;;4894488;29;20063;-62
2021/05/12 08:23:46;;;;;;;4.63;2.10;;;;;;;;;;4895115;29;20043;-73
2021/05/12 08:26:13;;;;;;;7.07;2.08;;;;;;;;;;4894571;29;20048;-62
2021/05/12 08:28:40;;;;;;;19.05;3.58;;;;;;;;;;4894797;29;20032;-69
2021/05/12 08:31:06;;;;;;;6.13;2.10;;;;;;;;;;4894912;29;20409;-66
2021/05/12 08:33:32;;;;;;;5.07;2.25;;;;;;;;;;4894560;29;20116;-74
2021/05/12 08:35:58;;;;;;;9.13;3.00;;;;;;;;;;4897416;29;20032;-73
2021/05/12 08:38:25;;;;;;;5.40;2.47;;;;;;;;;;4897813;29;20119;-65
2021/05/12 08:40:53;;;;;;;5.65;2.17;;;;;;;;;;4900708;29;20478;-68
2021/05/12 08:43:19;;;;;;;6.45;2.17;;;;;;;;;;4898004;29;20438;-66
2021/05/12 08:45:46;;;;;;;5.35;2.15;;;;;;;;;;4897999;29;20029;-71
2021/05/12 08:48:16;;;;;;;4.97;2.10;;;;;;;;;;4898245;29;20040;-72
2021/05/12 08:50:43;;;;;;;7.50;2.38;;;;;;;;;;4898120;29;20036;-64
2021/05/12 08:53:09;;;;;;;5.97;2.13;;;;;;;;;;4897819;29;20497;-65
2021/05/12 08:55:36;;;;;;;7.93;2.40;;;;;;;;;;4898160;29;20036;-67
2021/05/12 08:58:02;;;;;;;5.90;2.05;;;;;;;;;;4897824;29;20543;-66
2021/05/12 09:00:29;;;;;;;6.30;2.40;;;;;;;;;;4896807;29;20084;-64
2021/05/12 09:02:55;;;;;;;6.47;2.65;;;;;;;;;;4897530;29;20128;-73
2021/05/12 09:05:21;;;;;;;5.65;2.67;;;;;;;;;;4897719;29;20104;-63
2021/05/12 09:07:48;;;;;;;4.57;2.35;;;;;;;;;;4897414;29;20025;-64
2021/05/12 09:10:15;;;;;;;4.15;2.20;;;;;;;;;;4897622;29;20363;-65
2021/05/12 09:12:43;;;;;;;5.78;2.65;;;;;;;;;;4897391;29;20100;-68
2021/05/12 09:15:11;;;;;;;4.45;2.55;;;;;;;;;;4897402;29;20047;-73
2021/05/12 09:17:40;;;;;;;5.10;2.28;;;;;;;;;;4880456;29;20033;-69
2021/05/12 09:20:27;;;;;;;6.75;2.70;;;;;;;;;;4897653;29;20051;-68
2021/05/12 09:22:59;;;;;;;5.78;2.50;;;;;;;;;;4821207;29;20051;-67
2021/05/12 09:25:25;;;;;;;;;;;;;;;;;;4821484;29;20043;-71
2021/05/12 09:27:52;;;;;;;5.47;2.85;;;;;;;;;;4821092;29;20327;-71
2021/05/12 09:30:21;;;;;;;6.50;2.67;;;;;;;;;;4821301;29;20039;-70
2021/05/12 09:32:48;;;;;;;5.38;2.35;;;;;;;;;;4820757;29;20035;-69
2021/05/12 09:35:15;;;;;;;9.90;3.10;;;;;;;;;;4820328;29;20057;-71
2021/05/12 09:37:42;;;;;;;5.05;2.97;;;;;;;;;;4802903;29;20511;-64
2021/05/12 09:40:11;;;;;;;7.63;2.67;;;;;;;;;;4820775;29;20053;-66
2021/05/12 09:42:38;;;;;;;7.40;2.72;;;;;;;;;;4821019;29;20079;-71
2021/05/12 09:45:16;;;;;;;7.95;3.17;;;;;;;;;;4820223;29;20030;-72
2021/05/12 09:47:49;;;;;;;6.82;3.10;;;;;;;;;;4820074;29;20050;-71
2021/05/12 09:50:20;;;;;;;5.32;2.90;;;;;;;;;;4806924;29;20027;-73
2021/05/12 09:52:46;;;;;;;6.32;3.00;;;;;;;;;;4817864;29;20046;-70
2021/05/12 09:55:16;;;;;;;7.38;3.30;;;;;;;;;;4808815;29;20043;-72
2021/05/12 09:58:00;;;;;;;7.93;2.97;;;;;;;;;;4802669;29;20046;-70
2021/05/12 10:00:28;;;;;;;5.05;2.60;;;;;;;;;;4854777;29;20485;-75
2021/05/12 10:02:54;;;;;;;7.18;2.88;;;;;;;;;;4878390;29;20453;-70
2021/05/12 10:05:20;;;;;;;7.35;3.03;;;;;;;;;;4877936;29;20386;-65
2021/05/12 10:07:54;;;;;;;5.97;2.60;;;;;;;;;;4878003;29;20033;-63
2021/05/12 10:10:36;;;;;;;6.78;2.70;;;;;;;;;;4861438;29;20063;-63
2021/05/12 10:13:02;;;;;;;10.23;3.17;;;;;;;;;;4892526;29;20091;-62
2021/05/12 10:15:28;;;;;;;7.80;3.15;;;;;;;;;;4899013;29;20029;-65
2021/05/12 10:17:55;;;;;;;7.90;3.10;;;;;;;;;;4913655;29;20104;-67
2021/05/12 10:20:21;;;;;;;11.82;3.20;;;;;;;;;;4911209;29;20044;-65
2021/05/12 10:22:47;;;;;;;13.85;3.55;;;;;;;;;;4896121;29;20505;-67
2021/05/12 10:25:13;;;;;;;9.13;3.92;;;;;;;;;;4896376;29;20520;-62
2021/05/12 10:27:41;;;;;;;10.23;3.92;;;;;;;;;;4896063;29;20039;-65
2021/05/12 10:30:08;;;;;;;10.98;4.00;;;;;;;;;;4890928;29;20065;-66
2021/05/12 10:32:39;;;;;;;10.27;3.50;;;;;;;;;;4892098;29;20302;-67
2021/05/12 10:35:07;;;;;;;7.70;3.35;;;;;;;;;;4895421;29;20033;-63
2021/05/12 10:37:36;;;;;;;9.93;3.50;;;;;;;;;;4895819;29;20040;-62
2021/05/12 10:40:04;;;;;;;8.98;3.25;;;;;;;;;;4896165;29;20024;-62
2021/05/12 10:42:44;;;;;;;8.30;3.53;;;;;;;;;;4895999;29;20031;-68
2021/05/12 10:45:10;;;;;;;8.93;3.42;;;;;;;;;;4895238;29;20119;-69
2021/05/12 10:47:37;;;;;;;8.52;3.03;;;;;;;;;;4878761;29;20084;-62
2021/05/12 10:50:04;;;;;;;8.65;3.63;;;;;;;;;;4895135;29;20032;-65
2021/05/12 10:52:30;;;;;;;7.15;3.30;;;;;;;;;;4895409;29;20197;-62
2021/05/12 10:54:56;;;;;;;8.15;3.28;;;;;;;;;;4878663;29;20043;-72
2021/05/12 10:57:37;;;;;;;10.07;3.45;;;;;;;;;;4894373;29;20036;-62
2021/05/12 11:00:04;;;;;;;6.82;3.15;;;;;;;;;;4895229;29;20032;-67
2021/05/12 11:02:59;;;;;;;8.30;3.13;;;;;;;;;;4895626;29;20549;-69
2021/05/12 11:05:40;;;;;;;6.80;3.13;;;;;;;;;;4895431;29;20036;-62
2021/05/12 11:08:16;;;;;;;10.82;3.30;;;;;;;;;;4895686;29;20025;-70
2021/05/12 11:11:00;;;;;;;5.93;3.15;;;;;;;;;;4895374;29;20044;-73
2021/05/12 11:13:27;;;;;;;7.32;3.60;;;;;;;;;;4895229;29;20028;-75
2021/05/12 11:16:04;;;;;;;7.15;3.33;;;;;;;;;;4895455;29;20028;-77
2021/05/12 11:18:37;;;;;;;5.00;2.70;;;;;;;;;;4895311;29;20044;-73
2021/05/12 11:24:08;;;;;;;9.32;3.50;;;;;;;;;;4837432;29;20129;-63
2021/05/12 11:32:03;;;;;;;6.82;3.00;;;;;;;;;;4837296;29;20044;-63
2021/05/12 11:34:30;;;;;;;9.35;2.67;;;;;;;;;;4837234;29;20074;-74
2021/05/12 11:37:10;;;;;;;9.43;3.65;;;;;;;;;;4837264;29;20069;-63
2021/05/12 11:39:36;;;;;;;5.53;3.20;;;;;;;;;;4837705;29;20422;-63
2021/05/12 11:42:03;;;;;;;12.50;3.95;;;;;;;;;;4837235;29;20479;-64
2021/05/12 11:44:29;;;;;;;10.85;3.70;;;;;;;;;;4820219;29;20068;-63
2021/05/12 11:46:55;;;;;;;13.65;3.58;;;;;;;;;;4837199;29;20128;-65
2021/05/12 11:49:29;;;;;;;9.55;2.95;;;;;;;;;;4834705;29;20052;-61
2021/05/12 11:51:59;;;;;;;13.10;3.13;;;;;;;;;;4828222;29;20053;-61
2021/05/12 11:54:25;;;;;;;8.88;3.22;;;;;;;;;;4828966;29;20564;-67
2021/05/12 11:56:51;;;;;;;6.22;3.17;;;;;;;;;;4827782;29;20243;-62
2021/05/12 11:59:22;;;;;;;5.30;2.97;;;;;;;;;;4827624;29;20086;-61
2021/05/12 12:01:55;;;;;;;6.82;2.85;;;;;;;;;;4882006;29;20127;-64
2021/05/12 12:06:48;;;;;;;5.65;2.88;;;;;;;;;;4894504;29;20025;-61
2021/05/12 12:09:15;;;;;;;8.07;2.90;;;;;;;;;;4895273;29;20056;-65
2021/05/12 12:11:44;;;;;;;7.13;2.60;;;;;;;;;;4898189;29;20028;-60
2021/05/12 12:14:10;;;;;;;8.82;2.70;;;;;;;;;;4898420;29;20040;-62
2021/05/12 12:16:37;;;;;;;9.30;3.63;;;;;;;;;;4898415;29;20067;-64
2021/05/12 12:19:10;;;;;;;6.78;2.85;;;;;;;;;;4898389;29;20029;-63
2021/05/12 12:21:37;;;;;;;7.40;3.22;;;;;;;;;;4897386;29;20127;-61
2021/05/12 12:24:11;;;;;;;7.13;2.33;;;;;;;;;;4897005;29;20032;-62
2021/05/12 12:26:40;;;;;;;10.30;2.75;;;;;;;;;;4898124;29;20028;-62
2021/05/12 12:29:07;;;;;;;6.43;2.47;;;;;;;;;;4898569;29;20059;-71
2021/05/12 12:31:38;;;;;;;5.68;2.40;;;;;;;;;;4898480;29;20480;-63
2021/05/12 12:34:07;;;;;;;6.65;2.60;;;;;;;;;;4898803;29;20060;-66
2021/05/12 12:36:33;;;;;;;9.18;2.92;;;;;;;;;;4898408;29;20056;-65
2021/05/12 12:39:02;;;;;;;9.63;3.70;;;;;;;;;;4897769;29;20430;-70
2021/05/12 12:41:31;;;;;;;6.68;2.58;;;;;;;;;;4898269;29;20023;-65
2021/05/12 12:43:58;;;;;;;9.23;3.47;;;;;;;;;;4898208;29;20029;-62
2021/05/12 12:46:27;;;;;;;6.95;2.72;;;;;;;;;;4898278;29;20021;-66
2021/05/12 12:48:53;;;;;;;6.55;3.00;;;;;;;;;;4897781;29;20520;-69
2021/05/12 12:51:35;;;;;;;7.78;2.35;;;;;;;;;;4897777;29;20036;-65
2021/05/12 12:54:01;;;;;;;9.55;3.13;;;;;;;;;;4897613;29;20056;-60
2021/05/12 12:56:27;;;;;;;4.70;2.75;;;;;;;;;;4897938;29;20370;-70
2021/05/12 12:59:10;;;;;;;12.00;2.95;;;;;;;;;;4897773;29;20044;-70
2021/05/12 13:01:37;;;;;;;13.40;2.50;;;;;;;;;;4897218;29;20032;-62
2021/05/12 13:04:20;;;;;;;14.07;2.72;;;;;;;;;;4897920;29;20029;-64
2021/05/12 13:07:02;;;;;;;10.48;2.40;;;;;;;;;;4897660;29;20053;-61
2021/05/12 13:09:28;;;;;;;12.32;2.20;;;;;;;;;;4897380;29;20103;-72
2021/05/12 13:11:58;;;;;;;11.05;2.10;;;;;;;;;;4897619;29;20020;-73
2021/05/12 13:14:25;;;;;;;14.00;2.45;;;;;;;;;;4897393;29;20025;-73
2021/05/12 13:17:02;;;;;;;7.72;2.30;;;;;;;;;;4897592;29;20428;-70
2021/05/12 13:19:28;;;;;;;8.55;2.30;;;;;;;;;;4897552;29;20024;-71
2021/05/12 13:21:55;;;;;;;7.55;1.98;;;;;;;;;;4897475;29;20064;-61
2021/05/12 13:24:22;;;;;;;10.68;1.75;;;;;;;;;;4897273;29;20095;-71
2021/05/12 13:26:55;;;;;;;15.05;2.10;;;;;;;;;;4897136;29;20419;-71
2021/05/12 13:29:21;;;;;;;12.35;2.20;;;;;;;;;;4897118;29;20035;-71
2021/05/12 13:31:50;;;;;;;5.63;1.70;;;;;;;;;;4903957;29;20059;-75
2021/05/12 13:34:19;;;;;;;10.77;1.92;;;;;;;;;;4911776;29;20362;-70
2021/05/12 13:36:47;;;;;;;8.10;1.88;;;;;;;;;;4911477;29;20060;-71
2021/05/12 13:39:13;;;;;;;5.93;1.60;;;;;;;;;;4914840;29;20044;-61
2021/05/12 13:41:39;;;;;;;11.63;2.00;;;;;;;;;;4897536;29;20709;-66
2021/05/12 13:44:06;;;;;;;8.63;2.65;;;;;;;;;;4902766;29;20036;-74
2021/05/12 13:46:32;;;;;;;11.43;1.80;;;;;;;;;;4903261;29;20035;-72
2021/05/12 13:48:58;;;;;;;5.70;1.73;;;;;;;;;;4910545;29;20388;-71
2021/05/12 13:51:27;;;;;;;7.50;1.60;;;;;;;;;;4896962;29;20119;-68
2021/05/12 14:01:56;;;;;;;8.43;1.98;;;;;;;;;;4820075;29;20074;-65
2021/05/12 14:04:22;;;;;;;7.05;2.30;;;;;;;;;;4820061;29;20050;-62
2021/05/12 14:06:49;;;;;;;7.95;2.10;;;;;;;;;;4823026;29;20091;-67
2021/05/12 14:09:21;;;;;;;6.07;1.70;;;;;;;;;;4829016;29;20030;-62
2021/05/12 14:11:56;;;;;;;4.93;2.15;;;;;;;;;;4829855;29;20030;-62
2021/05/12 14:19:16;;;;;;;14.13;2.50;;;;;;;;;;4824752;29;20125;-61
2021/05/12 14:21:43;;;;;;;5.95;2.20;;;;;;;;;;4828034;29;20148;-63
2021/05/12 14:24:09;;;;;;;26.55;3.08;;;;;;;;;;4824662;29;20039;-64
2021/05/12 14:26:35;;;;;;;36.95;3.97;;;;;;;;;;4828725;29;20393;-68
2021/05/12 14:29:03;;;;;;;4.55;2.20;;;;;;;;;;4827639;29;20113;-70
2021/05/12 14:31:30;;;;;;;13.45;2.80;;;;;;;;;;4823092;29;20141;-63
2021/05/12 14:33:56;;;;;;;4.85;2.42;;;;;;;;;;4826695;29;20046;-65
2021/05/12 14:36:22;;;;;;;10.55;2.83;;;;;;;;;;4862118;29;20389;-62
2021/05/12 14:38:49;;;;;;;7.85;2.63;;;;;;;;;;4894126;29;20075;-68
2021/05/12 14:41:15;;;;;;;5.32;2.90;;;;;;;;;;4894361;29;20024;-67
2021/05/12 14:43:41;;;;;;;6.35;2.83;;;;;;;;;;4894667;29;20036;-68
2021/05/12 14:46:07;;;;;;;6.60;2.53;;;;;;;;;;4895481;29;20051;-64
2021/05/12 14:48:40;;;;;;;6.63;2.72;;;;;;;;;;4895365;29;20036;-67
2021/05/12 14:51:11;;;;;;;7.68;2.97;;;;;;;;;;4894698;29;20056;-66
2021/05/12 14:53:38;;;;;;;7.45;3.13;;;;;;;;;;4894487;29;20043;-64
2021/05/12 15:01:16;;;;;;;7.13;2.72;;;;;;;;;;4895227;29;20077;-69
2021/05/12 15:08:34;;;;;;;7.45;2.80;;;;;;;;;;4894757;29;20111;-67
2021/05/12 15:11:00;;;;;;;6.40;3.00;;;;;;;;;;4895431;29;20035;-69
2021/05/12 15:13:26;;;;;;;5.82;2.78;;;;;;;;;;4894956;29;20032;-68
2021/05/12 15:15:53;;;;;;;9.73;2.85;;;;;;;;;;4895068;29;20028;-60